QLK338 NZAA-NZWN
Flight info
| Callsign | QLK338 |
|---|---|
| Flight time | 1h 7m |
| Altitude | 36000 |
| Route | IGBAT Y506 TPAPA |
| Aircraft | A319/M-SDE3FGHIRWY/LB1 |
Departure
| Time | 2026-05-07 08:59 |
|---|---|
| Airport | Auckland International Airport (NZAA) |
Arrival
| Time | 2026-05-07 10:06 |
|---|---|
| Airport | Wellington International Airport (NZWN) |
| Time | Latitude | Longitude | Altitude | Speed | Heading |
|---|---|---|---|---|---|
| 2026-05-07 08:35 | -37.00727 | 174.78871 | 27 ft | 0 kts | 71° |
| 2026-05-07 08:51 | -37.00731 | 174.78854 | 25 ft | 4 kts | 77° |
| 2026-05-07 08:52 | -37.00733 | 174.78824 | 28 ft | 4 kts | 124° |
| 2026-05-07 08:52 | -37.00725 | 174.78814 | 26 ft | 0 kts | 161° |
| 2026-05-07 08:52 | -37.00748 | 174.78824 | 28 ft | 4 kts | 161° |
| 2026-05-07 08:52 | -37.00774 | 174.78835 | 28 ft | 4 kts | 161° |
| 2026-05-07 08:53 | -37.00782 | 174.78839 | 27 ft | 0 kts | 161° |
| 2026-05-07 08:54 | -37.00790 | 174.78842 | 30 ft | 4 kts | 161° |
| 2026-05-07 08:55 | -37.00862 | 174.78871 | 27 ft | 16 kts | 167° |
| 2026-05-07 08:55 | -37.00942 | 174.78865 | 27 ft | 11 kts | 224° |
| 2026-05-07 08:55 | -37.00976 | 174.78759 | 25 ft | 15 kts | 251° |
| 2026-05-07 08:55 | -37.01017 | 174.78607 | 25 ft | 22 kts | 251° |
| 2026-05-07 08:56 | -37.01074 | 174.78401 | 26 ft | 27 kts | 251° |
| 2026-05-07 08:56 | -37.01137 | 174.78171 | 26 ft | 25 kts | 251° |
| 2026-05-07 08:56 | -37.01204 | 174.78100 | 27 ft | 14 kts | 153° |
| 2026-05-07 08:56 | -37.01238 | 174.78225 | 26 ft | 19 kts | 101° |
| 2026-05-07 08:57 | -37.01292 | 174.78307 | 26 ft | 14 kts | 224° |
| 2026-05-07 08:57 | -37.01333 | 174.78162 | 26 ft | 22 kts | 251° |
| 2026-05-07 08:57 | -37.01393 | 174.77947 | 26 ft | 29 kts | 251° |
| 2026-05-07 08:57 | -37.01442 | 174.77694 | 29 ft | 26 kts | 253° |
| 2026-05-07 08:58 | -37.01465 | 174.77664 | 27 ft | 3 kts | 95° |
| 2026-05-07 08:58 | -37.01451 | 174.77736 | 29 ft | 22 kts | 70° |
| 2026-05-07 08:58 | -37.01333 | 174.78164 | 27 ft | 81 kts | 70° |
| 2026-05-07 08:58 | -37.01085 | 174.79055 | 26 ft | 134 kts | 71° |
| 2026-05-07 08:59 | -37.00741 | 174.80295 | 325 ft | 155 kts | 69° |
| 2026-05-07 08:59 | -37.00389 | 174.81574 | 953 ft | 156 kts | 66° |
| 2026-05-07 08:59 | -37.00036 | 174.82852 | 1646 ft | 155 kts | 64° |
| 2026-05-07 08:59 | -36.99674 | 174.84153 | 2211 ft | 166 kts | 64° |
| 2026-05-07 09:00 | -36.99263 | 174.85605 | 2585 ft | 189 kts | 64° |
| 2026-05-07 09:00 | -36.98800 | 174.87243 | 3030 ft | 207 kts | 65° |
| 2026-05-07 09:00 | -36.98323 | 174.88980 | 3712 ft | 215 kts | 68° |
| 2026-05-07 09:00 | -36.98304 | 174.90898 | 4381 ft | 235 kts | 107° |
| 2026-05-07 09:01 | -36.99325 | 174.92500 | 5219 ft | 243 kts | 148° |
| 2026-05-07 09:01 | -37.00836 | 174.93371 | 6089 ft | 243 kts | 160° |
| 2026-05-07 09:01 | -37.02484 | 174.93738 | 6905 ft | 243 kts | 189° |
| 2026-05-07 09:01 | -37.04053 | 174.93033 | 7676 ft | 241 kts | 217° |
| 2026-05-07 09:02 | -37.05174 | 174.91519 | 8443 ft | 238 kts | 245° |
| 2026-05-07 09:02 | -37.05767 | 174.89577 | 9182 ft | 243 kts | 255° |
| 2026-05-07 09:02 | -37.06335 | 174.87489 | 9700 ft | 260 kts | 255° |
| 2026-05-07 09:02 | -37.06927 | 174.85323 | 10435 ft | 265 kts | 255° |
| 2026-05-07 09:03 | -37.07533 | 174.83117 | 11192 ft | 269 kts | 254° |
| 2026-05-07 09:03 | -37.08148 | 174.80888 | 11956 ft | 272 kts | 254° |
| 2026-05-07 09:03 | -37.08768 | 174.78642 | 12727 ft | 275 kts | 254° |
| 2026-05-07 09:03 | -37.09389 | 174.76398 | 13487 ft | 278 kts | 253° |
| 2026-05-07 09:04 | -37.10312 | 174.74253 | 14163 ft | 288 kts | 229° |
| 2026-05-07 09:04 | -37.12027 | 174.72856 | 14791 ft | 298 kts | 202° |
| 2026-05-07 09:04 | -37.14060 | 174.72370 | 15450 ft | 303 kts | 191° |
| 2026-05-07 09:04 | -37.16153 | 174.71998 | 16130 ft | 305 kts | 192° |
| 2026-05-07 09:05 | -37.18257 | 174.71598 | 16783 ft | 307 kts | 192° |
| 2026-05-07 09:05 | -37.20379 | 174.71183 | 17420 ft | 310 kts | 192° |
| 2026-05-07 09:05 | -37.22519 | 174.70759 | 18045 ft | 312 kts | 193° |
| 2026-05-07 09:05 | -37.24675 | 174.70331 | 18625 ft | 315 kts | 193° |
| 2026-05-07 09:06 | -37.26858 | 174.69899 | 19143 ft | 318 kts | 193° |
| 2026-05-07 09:06 | -37.29033 | 174.69467 | 19637 ft | 320 kts | 193° |
| 2026-05-07 09:06 | -37.31243 | 174.69028 | 20136 ft | 323 kts | 193° |
| 2026-05-07 09:06 | -37.33472 | 174.68583 | 20626 ft | 326 kts | 193° |
| 2026-05-07 09:07 | -37.35724 | 174.68134 | 21129 ft | 329 kts | 193° |
| 2026-05-07 09:07 | -37.37999 | 174.67678 | 21584 ft | 332 kts | 193° |
| 2026-05-07 09:07 | -37.40296 | 174.67219 | 22054 ft | 335 kts | 193° |
| 2026-05-07 09:07 | -37.42608 | 174.66758 | 22498 ft | 338 kts | 193° |
| 2026-05-07 09:08 | -37.44941 | 174.66293 | 22944 ft | 341 kts | 193° |
| 2026-05-07 09:08 | -37.47294 | 174.65827 | 23391 ft | 343 kts | 193° |
| 2026-05-07 09:08 | -37.49662 | 174.65355 | 23827 ft | 346 kts | 193° |
| 2026-05-07 09:08 | -37.52046 | 174.64879 | 24191 ft | 348 kts | 193° |
| 2026-05-07 09:09 | -37.54450 | 174.64402 | 24555 ft | 351 kts | 193° |
| 2026-05-07 09:09 | -37.56867 | 174.63920 | 24916 ft | 353 kts | 193° |
| 2026-05-07 09:09 | -37.59286 | 174.63333 | 25273 ft | 354 kts | 196° |
| 2026-05-07 09:09 | -37.61658 | 174.62631 | 25624 ft | 356 kts | 198° |
| 2026-05-07 09:10 | -37.64059 | 174.61852 | 25970 ft | 358 kts | 199° |
| 2026-05-07 09:10 | -37.66472 | 174.61047 | 26317 ft | 360 kts | 199° |
| 2026-05-07 09:10 | -37.68905 | 174.60245 | 26659 ft | 362 kts | 198° |
| 2026-05-07 09:10 | -37.71352 | 174.59457 | 26999 ft | 365 kts | 198° |
| 2026-05-07 09:11 | -37.73821 | 174.58675 | 27338 ft | 367 kts | 198° |
| 2026-05-07 09:11 | -37.76307 | 174.57894 | 27677 ft | 369 kts | 198° |
| 2026-05-07 09:11 | -37.78813 | 174.57110 | 28012 ft | 371 kts | 198° |
| 2026-05-07 09:11 | -37.81329 | 174.56326 | 28343 ft | 373 kts | 198° |
| 2026-05-07 09:12 | -37.83863 | 174.55537 | 28685 ft | 376 kts | 198° |
| 2026-05-07 09:12 | -37.86414 | 174.54743 | 28980 ft | 379 kts | 198° |
| 2026-05-07 09:12 | -37.88982 | 174.53940 | 29336 ft | 380 kts | 198° |
| 2026-05-07 09:12 | -37.91556 | 174.53135 | 29670 ft | 382 kts | 198° |
| 2026-05-07 09:13 | -37.94144 | 174.52324 | 29992 ft | 384 kts | 198° |
| 2026-05-07 09:13 | -37.96751 | 174.51514 | 30292 ft | 387 kts | 196° |
| 2026-05-07 09:13 | -37.99439 | 174.50965 | 30558 ft | 392 kts | 189° |
| 2026-05-07 09:13 | -38.02159 | 174.50603 | 30831 ft | 394 kts | 189° |
| 2026-05-07 09:14 | -38.04888 | 174.50229 | 31105 ft | 396 kts | 190° |
| 2026-05-07 09:14 | -38.07633 | 174.49848 | 31382 ft | 398 kts | 190° |
| 2026-05-07 09:14 | -38.10364 | 174.49467 | 31614 ft | 400 kts | 190° |
| 2026-05-07 09:14 | -38.13139 | 174.49077 | 31880 ft | 402 kts | 190° |
| 2026-05-07 09:15 | -38.15929 | 174.48684 | 32150 ft | 404 kts | 190° |
| 2026-05-07 09:15 | -38.18732 | 174.48287 | 32423 ft | 406 kts | 190° |
| 2026-05-07 09:15 | -38.21545 | 174.47894 | 32687 ft | 407 kts | 190° |
| 2026-05-07 09:15 | -38.24369 | 174.47503 | 32948 ft | 409 kts | 190° |
| 2026-05-07 09:16 | -38.27209 | 174.47111 | 33199 ft | 411 kts | 190° |
| 2026-05-07 09:16 | -38.30059 | 174.46719 | 33446 ft | 412 kts | 190° |
| 2026-05-07 09:16 | -38.31952 | 174.46456 | 33593 ft | 413 kts | 190° |
| 2026-05-07 09:16 | -38.34813 | 174.46055 | 33816 ft | 415 kts | 190° |
| 2026-05-07 09:17 | -38.37692 | 174.45649 | 34037 ft | 416 kts | 190° |
| 2026-05-07 09:17 | -38.40574 | 174.45245 | 34242 ft | 418 kts | 190° |
| 2026-05-07 09:17 | -38.43468 | 174.44841 | 34433 ft | 419 kts | 190° |
| 2026-05-07 09:17 | -38.46376 | 174.44436 | 34619 ft | 420 kts | 190° |
| 2026-05-07 09:18 | -38.49283 | 174.44030 | 34805 ft | 421 kts | 190° |
| 2026-05-07 09:18 | -38.52202 | 174.43624 | 35000 ft | 422 kts | 190° |
| 2026-05-07 09:18 | -38.55127 | 174.43216 | 35173 ft | 423 kts | 191° |
| 2026-05-07 09:18 | -38.58055 | 174.42808 | 35345 ft | 424 kts | 191° |
| 2026-05-07 09:19 | -38.60996 | 174.42395 | 35521 ft | 425 kts | 191° |
| 2026-05-07 09:19 | -38.63937 | 174.41980 | 35694 ft | 426 kts | 191° |
| 2026-05-07 09:19 | -38.66886 | 174.41565 | 35873 ft | 427 kts | 191° |
| 2026-05-07 09:19 | -38.69840 | 174.41150 | 36037 ft | 427 kts | 191° |
| 2026-05-07 09:20 | -38.72801 | 174.40730 | 36169 ft | 429 kts | 191° |
| 2026-05-07 09:20 | -38.75787 | 174.40305 | 36191 ft | 434 kts | 191° |
| 2026-05-07 09:20 | -38.81867 | 174.39442 | 36180 ft | 445 kts | 191° |
| 2026-05-07 09:21 | -38.88153 | 174.38547 | 36185 ft | 462 kts | 191° |
| 2026-05-07 09:21 | -38.94611 | 174.37628 | 36176 ft | 475 kts | 190° |
| 2026-05-07 09:22 | -39.01210 | 174.36694 | 36176 ft | 478 kts | 191° |
| 2026-05-07 09:22 | -39.07870 | 174.36083 | 36162 ft | 484 kts | 181° |
| 2026-05-07 09:23 | -39.14610 | 174.36477 | 36168 ft | 485 kts | 181° |
| 2026-05-07 09:23 | -39.21357 | 174.36866 | 36170 ft | 485 kts | 181° |
| 2026-05-07 09:24 | -39.28097 | 174.37259 | 36173 ft | 485 kts | 181° |
| 2026-05-07 09:24 | -39.34844 | 174.37646 | 36174 ft | 485 kts | 181° |
| 2026-05-07 09:25 | -39.41549 | 174.38025 | 36158 ft | 485 kts | 181° |
| 2026-05-07 09:25 | -39.48293 | 174.38423 | 36159 ft | 485 kts | 181° |
| 2026-05-07 09:26 | -39.55033 | 174.38821 | 36151 ft | 485 kts | 181° |
| 2026-05-07 09:26 | -39.61769 | 174.39212 | 36147 ft | 484 kts | 181° |
| 2026-05-07 09:27 | -39.68499 | 174.39599 | 36153 ft | 484 kts | 181° |
| 2026-05-07 09:28 | -39.78599 | 174.40193 | 36137 ft | 484 kts | 181° |
| 2026-05-07 09:28 | -39.85343 | 174.40593 | 36131 ft | 484 kts | 181° |
| 2026-05-07 09:29 | -39.92067 | 174.40984 | 36133 ft | 484 kts | 181° |
| 2026-05-07 09:29 | -39.98790 | 174.41381 | 36122 ft | 483 kts | 181° |
| 2026-05-07 09:30 | -40.05508 | 174.41777 | 36121 ft | 483 kts | 181° |
| 2026-05-07 09:30 | -40.12192 | 174.42164 | 36125 ft | 483 kts | 182° |
| 2026-05-07 09:31 | -40.18908 | 174.42558 | 36116 ft | 483 kts | 181° |
| 2026-05-07 09:31 | -40.25619 | 174.42960 | 36105 ft | 483 kts | 181° |
| 2026-05-07 09:32 | -40.32331 | 174.43358 | 36104 ft | 483 kts | 182° |
| 2026-05-07 09:32 | -40.39039 | 174.43755 | 36105 ft | 483 kts | 182° |
| 2026-05-07 09:32 | -40.42385 | 174.43957 | 35923 ft | 478 kts | 182° |
| 2026-05-07 09:33 | -40.45683 | 174.44158 | 35689 ft | 471 kts | 182° |
| 2026-05-07 09:33 | -40.48939 | 174.44358 | 35314 ft | 467 kts | 182° |
| 2026-05-07 09:33 | -40.52173 | 174.44554 | 34870 ft | 464 kts | 182° |
| 2026-05-07 09:33 | -40.55392 | 174.44744 | 34436 ft | 462 kts | 182° |
| 2026-05-07 09:34 | -40.58594 | 174.44931 | 33993 ft | 459 kts | 181° |
| 2026-05-07 09:34 | -40.61777 | 174.45116 | 33490 ft | 456 kts | 181° |
| 2026-05-07 09:34 | -40.64939 | 174.45303 | 33009 ft | 454 kts | 181° |
| 2026-05-07 09:34 | -40.68086 | 174.45492 | 32541 ft | 451 kts | 181° |
| 2026-05-07 09:35 | -40.71211 | 174.45706 | 32084 ft | 448 kts | 180° |
| 2026-05-07 09:35 | -40.74273 | 174.46077 | 31644 ft | 447 kts | 177° |
| 2026-05-07 09:35 | -40.77351 | 174.46602 | 31199 ft | 445 kts | 175° |
| 2026-05-07 09:35 | -40.80403 | 174.47208 | 30781 ft | 442 kts | 174° |
| 2026-05-07 09:36 | -40.83433 | 174.47835 | 30364 ft | 439 kts | 174° |
| 2026-05-07 09:36 | -40.86448 | 174.48441 | 29915 ft | 436 kts | 175° |
| 2026-05-07 09:36 | -40.89444 | 174.49012 | 29443 ft | 434 kts | 175° |
| 2026-05-07 09:36 | -40.92427 | 174.49553 | 28991 ft | 431 kts | 176° |
| 2026-05-07 09:37 | -40.95391 | 174.50073 | 28552 ft | 428 kts | 176° |
| 2026-05-07 09:37 | -40.98344 | 174.50584 | 28124 ft | 426 kts | 176° |
| 2026-05-07 09:37 | -41.01274 | 174.51090 | 27719 ft | 424 kts | 176° |
| 2026-05-07 09:37 | -41.04185 | 174.51597 | 27236 ft | 420 kts | 176° |
| 2026-05-07 09:38 | -41.07068 | 174.52105 | 26553 ft | 416 kts | 176° |
| 2026-05-07 09:38 | -41.09931 | 174.52635 | 25861 ft | 414 kts | 175° |
| 2026-05-07 09:38 | -41.12767 | 174.53223 | 25192 ft | 411 kts | 174° |
| 2026-05-07 09:38 | -41.15573 | 174.53845 | 24531 ft | 408 kts | 174° |
| 2026-05-07 09:39 | -41.18361 | 174.54477 | 23873 ft | 405 kts | 174° |
| 2026-05-07 09:39 | -41.21094 | 174.55092 | 23159 ft | 401 kts | 174° |
| 2026-05-07 09:39 | -41.23866 | 174.55678 | 22261 ft | 413 kts | 178° |
| 2026-05-07 09:39 | -41.26806 | 174.55528 | 21235 ft | 431 kts | 194° |
| 2026-05-07 09:40 | -41.29755 | 174.54856 | 20246 ft | 431 kts | 192° |
| 2026-05-07 09:40 | -41.32761 | 174.54725 | 19291 ft | 432 kts | 185° |
| 2026-05-07 09:40 | -41.35755 | 174.54738 | 18367 ft | 428 kts | 184° |
| 2026-05-07 09:40 | -41.38717 | 174.54761 | 17327 ft | 423 kts | 184° |
| 2026-05-07 09:41 | -41.41641 | 174.54785 | 16305 ft | 418 kts | 184° |
| 2026-05-07 09:41 | -41.44528 | 174.54811 | 15339 ft | 412 kts | 184° |
| 2026-05-07 09:41 | -41.47373 | 174.54852 | 14390 ft | 406 kts | 184° |
| 2026-05-07 09:41 | -41.50174 | 174.54919 | 13395 ft | 401 kts | 181° |
| 2026-05-07 09:42 | -41.52884 | 174.55763 | 12361 ft | 405 kts | 158° |
| 2026-05-07 09:42 | -41.55174 | 174.57913 | 11367 ft | 404 kts | 133° |
| 2026-05-07 09:42 | -41.56685 | 174.61001 | 10387 ft | 396 kts | 109° |
| 2026-05-07 09:42 | -41.57252 | 174.64515 | 9398 ft | 382 kts | 86° |
| 2026-05-07 09:43 | -41.56894 | 174.67935 | 8364 ft | 364 kts | 65° |
| 2026-05-07 09:43 | -41.55779 | 174.70846 | 7376 ft | 344 kts | 45° |
| 2026-05-07 09:43 | -41.54125 | 174.73018 | 6413 ft | 325 kts | 27° |
| 2026-05-07 09:43 | -41.52180 | 174.74390 | 5396 ft | 311 kts | 15° |
| 2026-05-07 09:44 | -41.50201 | 174.75523 | 4401 ft | 307 kts | 15° |
| 2026-05-07 09:44 | -41.48264 | 174.76637 | 3512 ft | 300 kts | 15° |
| 2026-05-07 09:44 | -41.46373 | 174.77729 | 2606 ft | 293 kts | 15° |
| 2026-05-07 09:44 | -41.44559 | 174.78782 | 2226 ft | 271 kts | 16° |
| 2026-05-07 09:45 | -41.42906 | 174.79695 | 2082 ft | 243 kts | 11° |
| 2026-05-07 09:45 | -41.41304 | 174.80077 | 1626 ft | 229 kts | 359° |
| 2026-05-07 09:45 | -41.39747 | 174.80189 | 1273 ft | 218 kts | 1° |
| 2026-05-07 09:45 | -41.38274 | 174.80297 | 1050 ft | 204 kts | 4° |
| 2026-05-07 09:46 | -41.36934 | 174.80392 | 1008 ft | 181 kts | 4° |
| 2026-05-07 09:46 | -41.35692 | 174.80478 | 1041 ft | 195 kts | 3° |
| 2026-05-07 09:46 | -41.34318 | 174.80598 | 1722 ft | 189 kts | 1° |
| 2026-05-07 09:46 | -41.32993 | 174.80765 | 2358 ft | 194 kts | 359° |
| 2026-05-07 09:47 | -41.31665 | 174.81313 | 2885 ft | 215 kts | 22° |
| 2026-05-07 09:47 | -41.30625 | 174.82881 | 2992 ft | 242 kts | 53° |
| 2026-05-07 09:47 | -41.30296 | 174.85169 | 3005 ft | 267 kts | 85° |
| 2026-05-07 09:47 | -41.30856 | 174.87559 | 3012 ft | 285 kts | 116° |
| 2026-05-07 09:48 | -41.32262 | 174.89487 | 2994 ft | 289 kts | 149° |
| 2026-05-07 09:48 | -41.34117 | 174.90480 | 2995 ft | 287 kts | 169° |
| 2026-05-07 09:48 | -41.36082 | 174.90754 | 3030 ft | 285 kts | 185° |
| 2026-05-07 09:48 | -41.38037 | 174.90878 | 3006 ft | 284 kts | 183° |
| 2026-05-07 09:49 | -41.39982 | 174.91039 | 2962 ft | 272 kts | 182° |
| 2026-05-07 09:49 | -41.41926 | 174.91196 | 3025 ft | 284 kts | 182° |
| 2026-05-07 09:49 | -41.43904 | 174.91351 | 2982 ft | 281 kts | 182° |
| 2026-05-07 09:49 | -41.45800 | 174.91510 | 3016 ft | 266 kts | 182° |
| 2026-05-07 09:50 | -41.47576 | 174.91534 | 3005 ft | 242 kts | 199° |
| 2026-05-07 09:50 | -41.49047 | 174.90869 | 3011 ft | 207 kts | 224° |
| 2026-05-07 09:50 | -41.50092 | 174.89750 | 3046 ft | 182 kts | 244° |
| 2026-05-07 09:50 | -41.50749 | 174.88423 | 3005 ft | 164 kts | 262° |
| 2026-05-07 09:51 | -41.51080 | 174.87038 | 3002 ft | 151 kts | 275° |
| 2026-05-07 09:51 | -41.51137 | 174.85688 | 3002 ft | 142 kts | 287° |
| 2026-05-07 09:51 | -41.50967 | 174.84430 | 3002 ft | 135 kts | 297° |
| 2026-05-07 09:51 | -41.50610 | 174.83297 | 2930 ft | 131 kts | 307° |
| 2026-05-07 09:52 | -41.50094 | 174.82324 | 2818 ft | 127 kts | 316° |
| 2026-05-07 09:52 | -41.49447 | 174.81536 | 2717 ft | 125 kts | 324° |
| 2026-05-07 09:52 | -41.48707 | 174.80957 | 2612 ft | 122 kts | 333° |
| 2026-05-07 09:52 | -41.47904 | 174.80592 | 2521 ft | 123 kts | 341° |
| 2026-05-07 09:53 | -41.47064 | 174.80365 | 2425 ft | 123 kts | 342° |
| 2026-05-07 09:53 | -41.46226 | 174.80148 | 2327 ft | 123 kts | 344° |
| 2026-05-07 09:53 | -41.45374 | 174.79995 | 2227 ft | 124 kts | 347° |
| 2026-05-07 09:53 | -41.44512 | 174.79908 | 2130 ft | 124 kts | 350° |
| 2026-05-07 09:54 | -41.43627 | 174.79886 | 2027 ft | 129 kts | 354° |
| 2026-05-07 09:54 | -41.42733 | 174.79935 | 1856 ft | 124 kts | 357° |
| 2026-05-07 09:54 | -41.41896 | 174.80047 | 1685 ft | 120 kts | 2° |
| 2026-05-07 09:54 | -41.41076 | 174.80122 | 1521 ft | 118 kts | 356° |
| 2026-05-07 09:55 | -41.40250 | 174.80173 | 1366 ft | 121 kts | 358° |
| 2026-05-07 09:55 | -41.39401 | 174.80229 | 1195 ft | 122 kts | 0° |
| 2026-05-07 09:55 | -41.38565 | 174.80286 | 1048 ft | 119 kts | 4° |
| 2026-05-07 09:55 | -41.37720 | 174.80346 | 883 ft | 122 kts | 6° |
| 2026-05-07 09:56 | -41.36867 | 174.80389 | 722 ft | 124 kts | 5° |
| 2026-05-07 09:56 | -41.36017 | 174.80414 | 580 ft | 119 kts | 8° |
| 2026-05-07 09:56 | -41.35193 | 174.80476 | 375 ft | 120 kts | 8° |
| 2026-05-07 09:56 | -41.34340 | 174.80569 | 240 ft | 118 kts | 5° |
| 2026-05-07 09:57 | -41.33526 | 174.80618 | 61 ft | 119 kts | 6° |
| 2026-05-07 09:57 | -41.32790 | 174.80681 | 67 ft | 95 kts | 3° |
| 2026-05-07 09:57 | -41.32052 | 174.80720 | 491 ft | 112 kts | 5° |
| 2026-05-07 09:57 | -41.31259 | 174.80775 | 1237 ft | 114 kts | 2° |
| 2026-05-07 09:58 | -41.30438 | 174.80828 | 1830 ft | 125 kts | 357° |
| 2026-05-07 09:58 | -41.29602 | 174.80537 | 1678 ft | 132 kts | 326° |
| 2026-05-07 09:58 | -41.29173 | 174.79327 | 1075 ft | 166 kts | 290° |
| 2026-05-07 09:58 | -41.28991 | 174.77717 | 581 ft | 185 kts | 285° |
| 2026-05-07 09:59 | -41.28781 | 174.76014 | 1274 ft | 191 kts | 287° |
| 2026-05-07 09:59 | -41.28579 | 174.74217 | 1872 ft | 201 kts | 286° |
| 2026-05-07 09:59 | -41.28662 | 174.72964 | 2399 ft | 213 kts | 264° |
| 2026-05-07 09:59 | -41.29924 | 174.70772 | 2948 ft | 244 kts | 223° |
| 2026-05-07 10:00 | -41.30981 | 174.70183 | 2995 ft | 256 kts | 201° |
| 2026-05-07 10:00 | -41.33392 | 174.69859 | 3022 ft | 258 kts | 197° |
| 2026-05-07 10:00 | -41.34558 | 174.69609 | 3006 ft | 255 kts | 199° |
| 2026-05-07 10:00 | -41.36310 | 174.69203 | 3011 ft | 257 kts | 197° |
| 2026-05-07 10:01 | -41.38121 | 174.69103 | 3014 ft | 262 kts | 187° |
| 2026-05-07 10:01 | -41.39896 | 174.69601 | 3002 ft | 260 kts | 157° |
| 2026-05-07 10:01 | -41.41487 | 174.70666 | 3004 ft | 249 kts | 154° |
| 2026-05-07 10:01 | -41.42990 | 174.71673 | 3002 ft | 237 kts | 155° |
| 2026-05-07 10:02 | -41.44412 | 174.72729 | 3020 ft | 232 kts | 139° |
| 2026-05-07 10:02 | -41.45315 | 174.74433 | 3070 ft | 221 kts | 100° |
| 2026-05-07 10:02 | -41.45435 | 174.76344 | 2741 ft | 196 kts | 64° |
| 2026-05-07 10:02 | -41.44937 | 174.77866 | 2416 ft | 165 kts | 37° |
| 2026-05-07 10:03 | -41.44178 | 174.78840 | 2151 ft | 143 kts | 22° |
| 2026-05-07 10:03 | -41.43355 | 174.79496 | 1954 ft | 134 kts | 13° |
| 2026-05-07 10:03 | -41.42537 | 174.79897 | 1788 ft | 118 kts | 7° |
| 2026-05-07 10:03 | -41.41735 | 174.80082 | 1638 ft | 116 kts | 359° |
| 2026-05-07 10:04 | -41.40930 | 174.80135 | 1488 ft | 117 kts | 356° |
| 2026-05-07 10:04 | -41.40107 | 174.80189 | 1333 ft | 119 kts | 359° |
| 2026-05-07 10:04 | -41.39264 | 174.80246 | 1174 ft | 118 kts | 1° |
| 2026-05-07 10:04 | -41.38434 | 174.80303 | 1016 ft | 119 kts | 5° |
| 2026-05-07 10:05 | -41.37589 | 174.80364 | 848 ft | 124 kts | 5° |
| 2026-05-07 10:05 | -41.36728 | 174.80413 | 687 ft | 120 kts | 5° |
| 2026-05-07 10:05 | -41.35896 | 174.80438 | 531 ft | 116 kts | 8° |
| 2026-05-07 10:05 | -41.35064 | 174.80522 | 363 ft | 123 kts | 5° |
| 2026-05-07 10:06 | -41.34230 | 174.80582 | 228 ft | 117 kts | 5° |
| 2026-05-07 10:06 | -41.33411 | 174.80636 | 73 ft | 116 kts | 6° |
| 2026-05-07 10:06 | -41.32679 | 174.80689 | 28 ft | 90 kts | 3° |
| 2026-05-07 10:06 | -41.32312 | 174.80716 | 36 ft | 17 kts | 3° |
| 2026-05-07 10:07 | -41.32191 | 174.80725 | 42 ft | 13 kts | 5° |
| 2026-05-07 10:07 | -41.32172 | 174.80814 | 44 ft | 10 kts | 97° |
| 2026-05-07 10:07 | -41.32246 | 174.80847 | 41 ft | 17 kts | 183° |
| 2026-05-07 10:07 | -41.32391 | 174.80837 | 36 ft | 25 kts | 183° |
| 2026-05-07 10:08 | -41.32579 | 174.80825 | 29 ft | 28 kts | 182° |
| 2026-05-07 10:08 | -41.32773 | 174.80811 | 26 ft | 26 kts | 183° |
| 2026-05-07 10:08 | -41.32937 | 174.80801 | 26 ft | 23 kts | 182° |
| 2026-05-07 10:08 | -41.33076 | 174.80794 | 26 ft | 12 kts | 174° |
| 2026-05-07 10:09 | -41.33105 | 174.80886 | 26 ft | 13 kts | 93° |
| 2026-05-07 10:09 | -41.33111 | 174.80969 | 26 ft | 6 kts | 90° |
| 2026-05-07 10:09 | -41.33081 | 174.80984 | 26 ft | 4 kts | 5° |
| 2026-05-07 10:09 | -41.33064 | 174.80990 | 26 ft | 3 kts | 14° |
| 2026-05-07 10:10 | -41.33061 | 174.80991 | 26 ft | 0 kts | 14° |